sensor_id;sensor_type;location;lat;lon;timestamp;pressure;altitude;pressure_sealevel;temperature;humidity
49122;BME280;35529;44.342;25.944;2023-07-13T00:00:27;100574.13;;;23.48;100.00
49122;BME280;35529;44.342;25.944;2023-07-13T00:02:55;100574.13;;;23.48;100.00
49122;BME280;35529;44.342;25.944;2023-07-13T00:05:29;100577.38;;;23.50;100.00
49122;BME280;35529;44.342;25.944;2023-07-13T00:07:55;100575.25;;;23.41;100.00
49122;BME280;35529;44.342;25.944;2023-07-13T00:10:24;100574.09;;;23.53;100.00
49122;BME280;35529;44.342;25.944;2023-07-13T00:12:50;100572.78;;;23.50;100.00
49122;BME280;35529;44.342;25.944;2023-07-13T00:15:23;100576.81;;;23.53;100.00
49122;BME280;35529;44.342;25.944;2023-07-13T00:17:52;100580.34;;;23.48;100.00
49122;BME280;35529;44.342;25.944;2023-07-13T00:20:21;100572.50;;;23.47;100.00
49122;BME280;35529;44.342;25.944;2023-07-13T00:22:51;100581.22;;;23.43;100.00
49122;BME280;35529;44.342;25.944;2023-07-13T00:25:23;100564.94;;;23.43;100.00
49122;BME280;35529;44.342;25.944;2023-07-13T00:27:53;100557.84;;;23.53;100.00
49122;BME280;35529;44.342;25.944;2023-07-13T00:30:22;100557.84;;;23.53;100.00
49122;BME280;35529;44.342;25.944;2023-07-13T00:32:48;100561.91;;;23.55;100.00
49122;BME280;35529;44.342;25.944;2023-07-13T00:35:15;100556.19;;;23.57;100.00
49122;BME280;35529;44.342;25.944;2023-07-13T00:37:41;100550.78;;;23.57;100.00
49122;BME280;35529;44.342;25.944;2023-07-13T00:40:11;100548.34;;;23.55;100.00
49122;BME280;35529;44.342;25.944;2023-07-13T00:42:40;100555.66;;;23.55;100.00
49122;BME280;35529;44.342;25.944;2023-07-13T00:47:35;100566.25;;;23.51;100.00
49122;BME280;35529;44.342;25.944;2023-07-13T00:50:02;100567.91;;;23.47;100.00
49122;BME280;35529;44.342;25.944;2023-07-13T00:52:28;100567.66;;;23.43;100.00
49122;BME280;35529;44.342;25.944;2023-07-13T00:54:59;100564.97;;;23.38;100.00
49122;BME280;35529;44.342;25.944;2023-07-13T00:57:31;100570.69;;;23.37;100.00
49122;BME280;35529;44.342;25.944;2023-07-13T00:59:58;100556.59;;;23.35;100.00
49122;BME280;35529;44.342;25.944;2023-07-13T01:02:25;100570.72;;;23.32;100.00
49122;BME280;35529;44.342;25.944;2023-07-13T01:04:55;100587.28;;;23.25;100.00
49122;BME280;35529;44.342;25.944;2023-07-13T01:07:22;100583.25;;;23.17;100.00
49122;BME280;35529;44.342;25.944;2023-07-13T01:09:48;100579.72;;;23.17;100.00
49122;BME280;35529;44.342;25.944;2023-07-13T01:12:16;100577.56;;;23.19;100.00
49122;BME280;35529;44.342;25.944;2023-07-13T01:14:42;100575.66;;;23.19;100.00
49122;BME280;35529;44.342;25.944;2023-07-13T01:17:11;100577.56;;;23.19;100.00
49122;BME280;35529;44.342;25.944;2023-07-13T01:22:12;100578.63;;;23.23;100.00
49122;BME280;35529;44.342;25.944;2023-07-13T01:24:40;100574.00;;;23.23;100.00
49122;BME280;35529;44.342;25.944;2023-07-13T01:27:07;100586.19;;;23.26;100.00
49122;BME280;35529;44.342;25.944;2023-07-13T01:29:34;100581.56;;;23.26;100.00
49122;BME280;35529;44.342;25.944;2023-07-13T01:32:01;100585.91;;;23.27;100.00
49122;BME280;35529;44.342;25.944;2023-07-13T01:34:29;100583.75;;;23.30;100.00
49122;BME280;35529;44.342;25.944;2023-07-13T01:36:55;100578.31;;;23.30;100.00
49122;BME280;35529;44.342;25.944;2023-07-13T01:39:24;100578.31;;;23.30;100.00
49122;BME280;35529;44.342;25.944;2023-07-13T01:41:50;100574.78;;;23.29;100.00
49122;BME280;35529;44.342;25.944;2023-07-13T01:44:36;100574.50;;;23.31;100.00
49122;BME280;35529;44.342;25.944;2023-07-13T01:47:02;100567.19;;;23.31;100.00
49122;BME280;35529;44.342;25.944;2023-07-13T01:49:31;100575.31;;;23.31;100.00
49122;BME280;35529;44.342;25.944;2023-07-13T01:52:00;100565.28;;;23.32;100.00
49122;BME280;35529;44.342;25.944;2023-07-13T01:54:29;100561.78;;;23.31;100.00
49122;BME280;35529;44.342;25.944;2023-07-13T01:56:56;100565.28;;;23.32;100.00
49122;BME280;35529;44.342;25.944;2023-07-13T01:59:31;100571.53;;;23.32;100.00
49122;BME280;35529;44.342;25.944;2023-07-13T02:02:02;100572.34;;;23.33;100.00
49122;BME280;35529;44.342;25.944;2023-07-13T02:04:50;100575.84;;;23.33;100.00
49122;BME280;35529;44.342;25.944;2023-07-13T02:07:56;100576.38;;;23.35;100.00
49122;BME280;35529;44.342;25.944;2023-07-13T02:10:45;100583.44;;;23.36;100.00
49122;BME280;35529;44.342;25.944;2023-07-13T02:13:14;100570.97;;;23.35;100.00
49122;BME280;35529;44.342;25.944;2023-07-13T02:15:40;100579.59;;;23.37;100.00
49122;BME280;35529;44.342;25.944;2023-07-13T02:18:08;100581.22;;;23.38;100.00
49122;BME280;35529;44.342;25.944;2023-07-13T02:20:37;100578.53;;;23.38;100.00
49122;BME280;35529;44.342;25.944;2023-07-13T02:23:05;100579.06;;;23.40;100.00
49122;BME280;35529;44.342;25.944;2023-07-13T02:25:31;100583.38;;;23.41;100.00
49122;BME280;35529;44.342;25.944;2023-07-13T02:28:00;100582.28;;;23.42;100.00
49122;BME280;35529;44.342;25.944;2023-07-13T02:30:27;100581.75;;;23.46;100.00
49122;BME280;35529;44.342;25.944;2023-07-13T02:32:56;100588.22;;;23.50;100.00
49122;BME280;35529;44.342;25.944;2023-07-13T02:35:27;100577.91;;;23.52;100.00
49122;BME280;35529;44.342;25.944;2023-07-13T02:37:55;100569.50;;;23.53;100.00
49122;BME280;35529;44.342;25.944;2023-07-13T02:40:24;100571.41;;;23.53;100.00
49122;BME280;35529;44.342;25.944;2023-07-13T02:42:50;100571.69;;;23.51;100.00
49122;BME280;35529;44.342;25.944;2023-07-13T02:45:16;100568.16;;;23.51;100.00
49122;BME280;35529;44.342;25.944;2023-07-13T02:47:44;100565.44;;;23.51;100.00
49122;BME280;35529;44.342;25.944;2023-07-13T02:50:13;100569.25;;;23.50;100.00
49122;BME280;35529;44.342;25.944;2023-07-13T02:52:39;100565.44;;;23.51;100.00
49122;BME280;35529;44.342;25.944;2023-07-13T02:55:11;100558.94;;;23.52;100.00
49122;BME280;35529;44.342;25.944;2023-07-13T02:57:39;100553.50;;;23.52;100.00
49122;BME280;35529;44.342;25.944;2023-07-13T03:00:07;100562.97;;;23.54;100.00
49122;BME280;35529;44.342;25.944;2023-07-13T03:02:36;100555.09;;;23.58;100.00
49122;BME280;35529;44.342;25.944;2023-07-13T03:05:06;100553.16;;;23.64;100.00
49122;BME280;35529;44.342;25.944;2023-07-13T03:07:36;100550.41;;;23.69;100.00
49122;BME280;35529;44.342;25.944;2023-07-13T03:10:05;100549.56;;;23.73;100.00
49122;BME280;35529;44.342;25.944;2023-07-13T03:12:32;100551.94;;;23.80;100.00
49122;BME280;35529;44.342;25.944;2023-07-13T03:15:00;100551.63;;;23.87;100.00
49122;BME280;35529;44.342;25.944;2023-07-13T03:17:26;100550.53;;;23.93;100.00
49122;BME280;35529;44.342;25.944;2023-07-13T03:19:55;100557.75;;;24.03;100.00
49122;BME280;35529;44.342;25.944;2023-07-13T03:22:26;100554.66;;;24.15;100.00
49122;BME280;35529;44.342;25.944;2023-07-13T03:24:54;100556.19;;;24.26;100.00
49122;BME280;35529;44.342;25.944;2023-07-13T03:27:20;100561.28;;;24.33;100.00
49122;BME280;35529;44.342;25.944;2023-07-13T03:29:46;100558.28;;;24.34;100.00
49122;BME280;35529;44.342;25.944;2023-07-13T03:32:15;100546.72;;;24.23;100.00
49122;BME280;35529;44.342;25.944;2023-07-13T03:34:41;100541.63;;;24.17;100.00
49122;BME280;35529;44.342;25.944;2023-07-13T03:37:11;100541.94;;;24.15;100.00
49122;BME280;35529;44.342;25.944;2023-07-13T03:39:40;100543.75;;;24.20;100.00
49122;BME280;35529;44.342;25.944;2023-07-13T03:42:11;100547.34;;;24.15;100.00
49122;BME280;35529;44.342;25.944;2023-07-13T03:44:42;100546.22;;;24.16;100.00
49122;BME280;35529;44.342;25.944;2023-07-13T03:47:11;100547.34;;;24.15;100.00
49122;BME280;35529;44.342;25.944;2023-07-13T03:49:40;100548.09;;;24.21;100.00
49122;BME280;35529;44.342;25.944;2023-07-13T03:52:06;100551.31;;;24.23;100.00
49122;BME280;35529;44.342;25.944;2023-07-13T03:54:35;100554.63;;;24.20;100.00
49122;BME280;35529;44.342;25.944;2023-07-13T03:57:03;100552.25;;;24.13;100.00
49122;BME280;35529;44.342;25.944;2023-07-13T03:59:32;100547.69;;;24.08;100.00
49122;BME280;35529;44.342;25.944;2023-07-13T04:02:02;100559.00;;;24.16;100.00
49122;BME280;35529;44.342;25.944;2023-07-13T04:04:30;100558.38;;;24.24;100.00
49122;BME280;35529;44.342;25.944;2023-07-13T04:06:58;100555.66;;;24.24;100.00
49122;BME280;35529;44.342;25.944;2023-07-13T04:09:24;100554.81;;;24.29;100.00
49122;BME280;35529;44.342;25.944;2023-07-13T04:11:53;100559.66;;;24.32;100.00
49122;BME280;35529;44.342;25.944;2023-07-13T04:14:21;100552.50;;;24.41;100.00
49122;BME280;35529;44.342;25.944;2023-07-13T04:16:47;100552.22;;;24.42;100.00
49122;BME280;35529;44.342;25.944;2023-07-13T04:19:13;100553.50;;;24.50;100.00
49122;BME280;35529;44.342;25.944;2023-07-13T04:21:39;100550.75;;;24.55;100.00
49122;BME280;35529;44.342;25.944;2023-07-13T04:24:08;100560.72;;;24.60;100.00
49122;BME280;35529;44.342;25.944;2023-07-13T04:26:39;100562.22;;;24.71;100.00
49122;BME280;35529;44.342;25.944;2023-07-13T04:29:08;100551.25;;;24.82;100.00
49122;BME280;35529;44.342;25.944;2023-07-13T04:31:36;100554.50;;;24.84;100.00
49122;BME280;35529;44.342;25.944;2023-07-13T04:34:07;100559.69;;;24.80;100.00
49122;BME280;35529;44.342;25.944;2023-07-13T04:36:38;100561.53;;;24.85;100.00
49122;BME280;35529;44.342;25.944;2023-07-13T04:39:04;100557.22;;;24.84;100.00
49122;BME280;35529;44.342;25.944;2023-07-13T04:41:30;100563.75;;;25.02;100.00
49122;BME280;35529;44.342;25.944;2023-07-13T04:43:58;100573.06;;;25.20;100.00
49122;BME280;35529;44.342;25.944;2023-07-13T04:46:29;100575.88;;;25.34;100.00
49122;BME280;35529;44.342;25.944;2023-07-13T04:48:55;100580.72;;;25.37;100.00
49122;BME280;35529;44.342;25.944;2023-07-13T04:51:28;100567.94;;;25.37;100.00
49122;BME280;35529;44.342;25.944;2023-07-13T04:53:57;100567.41;;;25.54;100.00
49122;BME280;35529;44.342;25.944;2023-07-13T04:56:28;100571.91;;;25.64;100.00
49122;BME280;35529;44.342;25.944;2023-07-13T04:58:59;100573.13;;;25.72;100.00
49122;BME280;35529;44.342;25.944;2023-07-13T05:01:25;100574.81;;;25.87;100.00
49122;BME280;35529;44.342;25.944;2023-07-13T05:03:53;100573.19;;;25.86;100.00
49122;BME280;35529;44.342;25.944;2023-07-13T05:06:22;100570.56;;;25.94;100.00
49122;BME280;35529;44.342;25.944;2023-07-13T05:08:48;100567.13;;;25.89;100.00
49122;BME280;35529;44.342;25.944;2023-07-13T05:11:17;100570.97;;;25.88;100.00
49122;BME280;35529;44.342;25.944;2023-07-13T05:13:46;100579.47;;;26.00;100.00
49122;BME280;35529;44.342;25.944;2023-07-13T05:16:14;100574.78;;;26.06;100.00
49122;BME280;35529;44.342;25.944;2023-07-13T05:18:45;100581.16;;;26.15;100.00
49122;BME280;35529;44.342;25.944;2023-07-13T05:21:13;100575.72;;;26.15;100.00
49122;BME280;35529;44.342;25.944;2023-07-13T05:23:42;100579.53;;;26.14;100.00
49122;BME280;35529;44.342;25.944;2023-07-13T05:26:10;100576.03;;;26.14;100.00
49122;BME280;35529;44.342;25.944;2023-07-13T05:28:39;100574.09;;;26.28;100.00
49122;BME280;35529;44.342;25.944;2023-07-13T05:31:10;100580.81;;;26.50;100.00
49122;BME280;35529;44.342;25.944;2023-07-13T05:33:36;100584.94;;;26.61;100.00
49122;BME280;35529;44.342;25.944;2023-07-13T05:36:05;100582.81;;;26.58;100.00
49122;BME280;35529;44.342;25.944;2023-07-13T05:38:34;100578.72;;;26.74;100.00
49122;BME280;35529;44.342;25.944;2023-07-13T05:41:00;100580.22;;;26.95;100.00
49122;BME280;35529;44.342;25.944;2023-07-13T05:43:31;100582.44;;;27.06;100.00
49122;BME280;35529;44.342;25.944;2023-07-13T05:46:02;100572.41;;;27.16;100.00
49122;BME280;35529;44.342;25.944;2023-07-13T05:48:31;100582.59;;;27.24;100.00
49122;BME280;35529;44.342;25.944;2023-07-13T05:51:02;100580.75;;;27.33;100.00
49122;BME280;35529;44.342;25.944;2023-07-13T05:53:30;100590.16;;;27.41;100.00
49122;BME280;35529;44.342;25.944;2023-07-13T05:55:57;100592.88;;;27.41;100.00
49122;BME280;35529;44.342;25.944;2023-07-13T05:58:23;100596.91;;;27.43;100.00
49122;BME280;35529;44.342;25.944;2023-07-13T06:00:58;100596.72;;;27.40;100.00
49122;BME280;35529;44.342;25.944;2023-07-13T06:03:29;100585.38;;;27.47;100.00
49122;BME280;35529;44.342;25.944;2023-07-13T06:05:58;100589.63;;;27.53;100.00
49122;BME280;35529;44.342;25.944;2023-07-13T06:08:26;100592.19;;;27.58;100.00
49122;BME280;35529;44.342;25.944;2023-07-13T06:10:52;100588.81;;;27.75;100.00
49122;BME280;35529;44.342;25.944;2023-07-13T06:13:20;100592.09;;;27.86;100.00
49122;BME280;35529;44.342;25.944;2023-07-13T06:15:52;100588.59;;;27.94;100.00
49122;BME280;35529;44.342;25.944;2023-07-13T06:18:18;100595.81;;;28.13;100.00
49122;BME280;35529;44.342;25.944;2023-07-13T06:20:47;100594.44;;;28.24;100.00
49122;BME280;35529;44.342;25.944;2023-07-13T06:23:15;100597.53;;;28.31;100.00
49122;BME280;35529;44.342;25.944;2023-07-13T06:25:46;100596.13;;;28.42;100.00
49122;BME280;35529;44.342;25.944;2023-07-13T06:28:15;100605.03;;;28.57;100.00
49122;BME280;35529;44.342;25.944;2023-07-13T06:30:45;100601.38;;;28.62;100.00
49122;BME280;35529;44.342;25.944;2023-07-13T06:33:16;100606.25;;;28.73;100.00
49122;BME280;35529;44.342;25.944;2023-07-13T06:35:47;100601.47;;;28.88;100.00
49122;BME280;35529;44.342;25.944;2023-07-13T06:38:16;100599.09;;;29.04;100.00
49122;BME280;35529;44.342;25.944;2023-07-13T06:40:44;100605.56;;;29.17;100.00
49122;BME280;35529;44.342;25.944;2023-07-13T06:43:12;100599.97;;;29.31;100.00
49122;BME280;35529;44.342;25.944;2023-07-13T06:45:43;100590.97;;;29.39;100.00
49122;BME280;35529;44.342;25.944;2023-07-13T06:48:11;100599.66;;;29.50;100.00
49122;BME280;35529;44.342;25.944;2023-07-13T06:50:43;100588.72;;;29.58;100.00
49122;BME280;35529;44.342;25.944;2023-07-13T06:53:10;100585.31;;;29.62;100.00
49122;BME280;35529;44.342;25.944;2023-07-13T06:55:36;100586.94;;;29.71;100.00
49122;BME280;35529;44.342;25.944;2023-07-13T06:58:02;100597.69;;;29.85;100.00
49122;BME280;35529;44.342;25.944;2023-07-13T07:00:28;100597.25;;;29.92;100.00
49122;BME280;35529;44.342;25.944;2023-07-13T07:02:58;100583.69;;;30.04;100.00
49122;BME280;35529;44.342;25.944;2023-07-13T07:05:24;100590.44;;;30.16;100.00
49122;BME280;35529;44.342;25.944;2023-07-13T07:07:50;100591.38;;;30.20;100.00
49122;BME280;35529;44.342;25.944;2023-07-13T07:10:19;100586.69;;;30.29;100.00
49122;BME280;35529;44.342;25.944;2023-07-13T07:12:45;100581.03;;;30.34;100.00
49122;BME280;35529;44.342;25.944;2023-07-13T07:15:14;100581.31;;;30.41;100.00
49122;BME280;35529;44.342;25.944;2023-07-13T07:17:42;100577.78;;;30.41;100.00
49122;BME280;35529;44.342;25.944;2023-07-13T07:20:13;100576.13;;;30.49;100.00
49122;BME280;35529;44.342;25.944;2023-07-13T07:22:39;100583.53;;;30.57;100.00
49122;BME280;35529;44.342;25.944;2023-07-13T07:25:07;100575.09;;;30.62;100.00
49122;BME280;35529;44.342;25.944;2023-07-13T07:27:36;100577.66;;;30.67;100.00
49122;BME280;35529;44.342;25.944;2023-07-13T07:30:04;100573.75;;;30.77;100.00
49122;BME280;35529;44.342;25.944;2023-07-13T07:32:33;100573.34;;;30.87;100.00
49122;BME280;35529;44.342;25.944;2023-07-13T07:35:04;100563.31;;;30.91;100.00
49122;BME280;35529;44.342;25.944;2023-07-13T07:37:35;100572.63;;;30.99;100.00
49122;BME280;35529;44.342;25.944;2023-07-13T07:40:01;100576.84;;;31.05;100.00
49122;BME280;35529;44.342;25.944;2023-07-13T07:42:28;100575.47;;;31.12;100.00
49122;BME280;35529;44.342;25.944;2023-07-13T07:44:54;100568.25;;;31.07;100.00
49122;BME280;35529;44.342;25.944;2023-07-13T07:47:22;100568.41;;;31.11;100.00
49122;BME280;35529;44.342;25.944;2023-07-13T07:49:49;100578.31;;;31.24;100.00
49122;BME280;35529;44.342;25.944;2023-07-13T07:52:20;100576.41;;;31.37;100.00
49122;BME280;35529;44.342;25.944;2023-07-13T07:54:46;100579.09;;;31.46;100.00
49122;BME280;35529;44.342;25.944;2023-07-13T07:57:17;100583.22;;;31.52;100.00
49122;BME280;35529;44.342;25.944;2023-07-13T07:59:46;100571.59;;;31.55;100.00
49122;BME280;35529;44.342;25.944;2023-07-13T08:02:15;100577.72;;;31.61;100.00
49122;BME280;35529;44.342;25.944;2023-07-13T08:04:43;100585.53;;;31.71;100.00
49122;BME280;35529;44.342;25.944;2023-07-13T08:07:11;100577.88;;;31.77;100.00
49122;BME280;35529;44.342;25.944;2023-07-13T08:09:42;100569.31;;;31.90;100.00
49122;BME280;35529;44.342;25.944;2023-07-13T08:12:10;100573.59;;;32.00;100.00
49122;BME280;35529;44.342;25.944;2023-07-13T08:14:39;100568.47;;;32.11;100.00
49122;BME280;35529;44.342;25.944;2023-07-13T08:17:07;100570.69;;;32.18;100.00
49122;BME280;35529;44.342;25.944;2023-07-13T08:19:36;100571.03;;;32.29;100.00
49122;BME280;35529;44.342;25.944;2023-07-13T08:22:04;100559.13;;;32.37;100.00
49122;BME280;35529;44.342;25.944;2023-07-13T08:24:32;100558.91;;;32.42;100.00
49122;BME280;35529;44.342;25.944;2023-07-13T08:27:01;100557.16;;;32.50;100.00
49122;BME280;35529;44.342;25.944;2023-07-13T08:29:29;100563.69;;;32.57;100.00
49122;BME280;35529;44.342;25.944;2023-07-13T08:31:59;100558.75;;;32.63;100.00
49122;BME280;35529;44.342;25.944;2023-07-13T08:34:30;100546.91;;;32.71;100.00
49122;BME280;35529;44.342;25.944;2023-07-13T08:36:59;100542.75;;;32.78;100.00
49122;BME280;35529;44.342;25.944;2023-07-13T08:39:25;100552.94;;;32.89;100.00
49122;BME280;35529;44.342;25.944;2023-07-13T08:41:54;100545.91;;;33.04;100.00
49122;BME280;35529;44.342;25.944;2023-07-13T08:44:36;100551.03;;;33.18;100.00
49122;BME280;35529;44.342;25.944;2023-07-13T08:47:07;100552.28;;;33.33;100.00
49122;BME280;35529;44.342;25.944;2023-07-13T08:49:39;100538.44;;;33.46;100.00
49122;BME280;35529;44.342;25.944;2023-07-13T08:52:18;100537.25;;;33.59;100.00
49122;BME280;35529;44.342;25.944;2023-07-13T08:54:55;100540.19;;;33.66;100.00
49122;BME280;35529;44.342;25.944;2023-07-13T08:57:26;100536.69;;;33.82;100.00
49122;BME280;35529;44.342;25.944;2023-07-13T08:59:58;100537.31;;;33.91;100.00
49122;BME280;35529;44.342;25.944;2023-07-13T09:02:45;100542.22;;;33.98;100.00
49122;BME280;35529;44.342;25.944;2023-07-13T09:05:45;100542.75;;;34.03;100.00
49122;BME280;35529;44.342;25.944;2023-07-13T09:10:43;100536.97;;;33.92;100.00
49122;BME280;35529;44.342;25.944;2023-07-13T09:16:00;100537.69;;;34.05;100.00
49122;BME280;35529;44.342;25.944;2023-07-13T09:18:34;100547.00;;;34.17;100.00
49122;BME280;35529;44.342;25.944;2023-07-13T09:21:12;100543.19;;;34.21;100.00
49122;BME280;35529;44.342;25.944;2023-07-13T09:23:40;100552.19;;;34.34;100.00
49122;BME280;35529;44.342;25.944;2023-07-13T09:26:12;100553.16;;;34.42;100.00
49122;BME280;35529;44.342;25.944;2023-07-13T09:28:44;100543.38;;;34.45;100.00
49122;BME280;35529;44.342;25.944;2023-07-13T09:31:16;100546.00;;;34.57;100.00
49122;BME280;35529;44.342;25.944;2023-07-13T09:33:45;100546.25;;;34.68;100.00
49122;BME280;35529;44.342;25.944;2023-07-13T09:36:31;100540.56;;;34.77;100.00
49122;BME280;35529;44.342;25.944;2023-07-13T09:41:29;100541.88;;;34.83;100.00
49122;BME280;35529;44.342;25.944;2023-07-13T09:44:09;100538.41;;;34.86;100.00
49122;BME280;35529;44.342;25.944;2023-07-13T09:46:39;100532.91;;;34.86;100.00
49122;BME280;35529;44.342;25.944;2023-07-13T09:49:09;100528.31;;;34.94;100.00
49122;BME280;35529;44.342;25.944;2023-07-13T09:51:40;100525.81;;;35.04;100.00
49122;BME280;35529;44.342;25.944;2023-07-13T09:54:18;100526.78;;;34.96;100.00
49122;BME280;35529;44.342;25.944;2023-07-13T09:56:45;100525.41;;;34.86;100.00
49122;BME280;35529;44.342;25.944;2023-07-13T09:59:20;100528.09;;;34.83;100.00
49122;BME280;35529;44.342;25.944;2023-07-13T10:01:49;100530.31;;;34.77;100.00
49122;BME280;35529;44.342;25.944;2023-07-13T10:04:26;100527.81;;;34.88;100.00
49122;BME280;35529;44.342;25.944;2023-07-13T10:07:04;100531.31;;;35.04;100.00
49122;BME280;35529;44.342;25.944;2023-07-13T10:09:36;100533.84;;;35.13;100.00
49122;BME280;35529;44.342;25.944;2023-07-13T10:12:13;100533.53;;;35.34;100.00
49122;BME280;35529;44.342;25.944;2023-07-13T10:14:41;100537.72;;;35.48;100.00
49122;BME280;35529;44.342;25.944;2023-07-13T10:17:15;100526.94;;;35.62;100.00
49122;BME280;35529;44.342;25.944;2023-07-13T10:19:45;100524.00;;;35.74;100.00
49122;BME280;35529;44.342;25.944;2023-07-13T10:22:20;100522.31;;;35.89;100.00
49122;BME280;35529;44.342;25.944;2023-07-13T10:24:52;100511.06;;;36.02;100.00
49122;BME280;35529;44.342;25.944;2023-07-13T10:27:23;100506.88;;;36.12;100.00
49122;BME280;35529;44.342;25.944;2023-07-13T10:32:34;100493.47;;;36.14;100.00
49122;BME280;35529;44.342;25.944;2023-07-13T10:35:04;100482.97;;;36.23;100.00
49122;BME280;35529;44.342;25.944;2023-07-13T10:37:39;100476.53;;;36.15;98.93
49122;BME280;35529;44.342;25.944;2023-07-13T10:40:12;100481.41;;;36.26;100.00
49122;BME280;35529;44.342;25.944;2023-07-13T10:42:42;100479.06;;;36.28;100.00
49122;BME280;35529;44.342;25.944;2023-07-13T10:45:17;100476.47;;;36.12;100.00
49122;BME280;35529;44.342;25.944;2023-07-13T10:47:46;100470.28;;;35.95;100.00
49122;BME280;35529;44.342;25.944;2023-07-13T10:50:15;100463.22;;;35.98;100.00
49122;BME280;35529;44.342;25.944;2023-07-13T10:52:49;100451.25;;;36.17;100.00
49122;BME280;35529;44.342;25.944;2023-07-13T10:58:20;100455.38;;;36.53;100.00
49122;BME280;35529;44.342;25.944;2023-07-13T11:03:19;100444.78;;;36.59;100.00
49122;BME280;35529;44.342;25.944;2023-07-13T11:05:53;100438.66;;;36.77;100.00
49122;BME280;35529;44.342;25.944;2023-07-13T11:08:33;100436.09;;;36.91;100.00
49122;BME280;35529;44.342;25.944;2023-07-13T11:11:49;100435.84;;;37.03;100.00
49122;BME280;35529;44.342;25.944;2023-07-13T11:18:53;100413.88;;;37.21;100.00
49122;BME280;35529;44.342;25.944;2023-07-13T11:21:41;100417.09;;;37.27;100.00
49122;BME280;35529;44.342;25.944;2023-07-13T11:24:28;100413.19;;;37.32;100.00
49122;BME280;35529;44.342;25.944;2023-07-13T11:27:00;100414.72;;;37.29;100.00
49122;BME280;35529;44.342;25.944;2023-07-13T11:29:45;100406.03;;;37.27;100.00
49122;BME280;35529;44.342;25.944;2023-07-13T11:32:22;100404.88;;;37.32;100.00
49122;BME280;35529;44.342;25.944;2023-07-13T11:34:48;100401.00;;;37.36;82.11
49122;BME280;35529;44.342;25.944;2023-07-13T11:37:17;100399.78;;;37.37;86.58
49122;BME280;35529;44.342;25.944;2023-07-13T11:39:50;100403.03;;;37.47;100.00
49122;BME280;35529;44.342;25.944;2023-07-13T11:42:18;100396.50;;;37.69;100.00
49122;BME280;35529;44.342;25.944;2023-07-13T11:44:51;100401.03;;;37.92;100.00
49122;BME280;35529;44.342;25.944;2023-07-13T11:47:18;100403.44;;;37.97;100.00
49122;BME280;35529;44.342;25.944;2023-07-13T11:49:50;100392.72;;;37.88;77.38
49122;BME280;35529;44.342;25.944;2023-07-13T11:52:21;100394.28;;;37.86;88.52
49122;BME280;35529;44.342;25.944;2023-07-13T11:54:52;100397.25;;;38.22;94.32
49122;BME280;35529;44.342;25.944;2023-07-13T11:57:31;100388.25;;;38.43;76.44
49122;BME280;35529;44.342;25.944;2023-07-13T12:00:09;100391.88;;;38.54;72.88
49122;BME280;35529;44.342;25.944;2023-07-13T12:02:39;100391.06;;;38.47;78.22
49122;BME280;35529;44.342;25.944;2023-07-13T12:05:17;100386.75;;;38.60;77.87
49122;BME280;35529;44.342;25.944;2023-07-13T12:07:49;100389.19;;;38.83;79.50
49122;BME280;35529;44.342;25.944;2023-07-13T12:10:21;100389.25;;;39.05;84.79
49122;BME280;35529;44.342;25.944;2023-07-13T12:12:54;100380.97;;;39.45;100.00
49122;BME280;35529;44.342;25.944;2023-07-13T12:15:21;100382.19;;;39.65;78.79
49122;BME280;35529;44.342;25.944;2023-07-13T12:17:54;100374.22;;;39.75;74.10
49122;BME280;35529;44.342;25.944;2023-07-13T12:20:37;100373.81;;;39.87;76.88
49122;BME280;35529;44.342;25.944;2023-07-13T12:23:10;100388.88;;;39.93;83.87
49122;BME280;35529;44.342;25.944;2023-07-13T12:25:47;100381.75;;;39.78;85.58
49122;BME280;35529;44.342;25.944;2023-07-13T12:28:19;100381.75;;;39.85;85.13
49122;BME280;35529;44.342;25.944;2023-07-13T12:30:51;100373.81;;;39.87;98.14
49122;BME280;35529;44.342;25.944;2023-07-13T12:33:27;100375.81;;;39.76;78.91
49122;BME280;35529;44.342;25.944;2023-07-13T12:35:54;100375.81;;;39.61;74.95
49122;BME280;35529;44.342;25.944;2023-07-13T12:38:24;100361.13;;;39.50;68.64
49122;BME280;35529;44.342;25.944;2023-07-13T12:40:53;100359.53;;;39.70;70.10
49122;BME280;35529;44.342;25.944;2023-07-13T12:43:23;100365.06;;;39.92;84.40
49122;BME280;35529;44.342;25.944;2023-07-13T12:45:57;100358.28;;;39.97;73.95
49122;BME280;35529;44.342;25.944;2023-07-13T12:48:23;100351.13;;;40.14;74.48
49122;BME280;35529;44.342;25.944;2023-07-13T12:50:50;100361.06;;;40.08;82.78
49122;BME280;35529;44.342;25.944;2023-07-13T12:53:21;100363.44;;;40.05;60.31
49122;BME280;35529;44.342;25.944;2023-07-13T12:55:49;100357.44;;;40.18;78.62
49122;BME280;35529;44.342;25.944;2023-07-13T12:58:17;100361.31;;;40.46;84.90
49122;BME280;35529;44.342;25.944;2023-07-13T13:00:49;100356.06;;;40.66;68.03
49122;BME280;35529;44.342;25.944;2023-07-13T13:03:22;100359.41;;;41.06;78.29
49122;BME280;35529;44.342;25.944;2023-07-13T13:06:03;100355.16;;;41.36;66.05
49122;BME280;35529;44.342;25.944;2023-07-13T13:08:32;100355.09;;;41.85;52.19
49122;BME280;35529;44.342;25.944;2023-07-13T13:10:59;100338.88;;;41.76;47.37